LGRP/RHO METAR and TAF weather

Enter ICAO airport designator
Station Type Date Time Source
LGRP METAR 2021/07/26 13:50 UTC NOAA

LGRP 261350Z 22016KT CAVOK 33/21 Q1009 NOSIG


Station Type Date Time Source
LGRP Decoded METAR 2021/07/26 13:50 UTC NOAA

Rhodes Airport , Greece (LGRP) 36-24N 028-05E 11M
Jul 26, 2021 - 09:50 AM EDT / 2021.07.26 1350 UTC
Wind: from the SW (220 degrees) at 18 MPH (16 KT):0
Visibility: greater than 7 mile(s):0
Temperature: 91 F (33 C)
Heat index: 96.1 F (35.6 C):1
Dew Point: 69 F (21 C)
Relative Humidity: 49%
Pressure (altimeter): 29.80 in. Hg (1009 hPa)
ob: LGRP 261350Z 22016KT CAVOK 33/21 Q1009 NOSIG
cycle: 14

Station Type Date Time Source
LGRP TAF 2021/07/26 12:13 UTC NOAA

TAF LGRP 261100Z 2612/2712 26015KT 9999 FEW020

Example: see airport list